sensor_id;sensor_type;location;lat;lon;timestamp;P1;durP1;ratioP1;P2;durP2;ratioP2
80322;SDS011;69636;52.372;13.610;2023-06-26T00:01:42;18.30;;;16.35;;
80322;SDS011;69636;52.372;13.610;2023-06-26T00:04:10;20.77;;;18.17;;
80322;SDS011;69636;52.372;13.610;2023-06-26T00:06:38;19.48;;;17.25;;
80322;SDS011;69636;52.372;13.610;2023-06-26T00:09:06;19.67;;;17.75;;
80322;SDS011;69636;52.372;13.610;2023-06-26T00:11:33;20.63;;;18.52;;
80322;SDS011;69636;52.372;13.610;2023-06-26T00:14:00;21.65;;;19.55;;
80322;SDS011;69636;52.372;13.610;2023-06-26T00:16:28;19.67;;;17.77;;
80322;SDS011;69636;52.372;13.610;2023-06-26T00:18:55;21.90;;;19.15;;
80322;SDS011;69636;52.372;13.610;2023-06-26T00:21:23;21.98;;;19.70;;
80322;SDS011;69636;52.372;13.610;2023-06-26T00:23:51;22.33;;;19.77;;
80322;SDS011;69636;52.372;13.610;2023-06-26T00:26:19;20.67;;;18.67;;
80322;SDS011;69636;52.372;13.610;2023-06-26T00:28:46;22.92;;;20.63;;
80322;SDS011;69636;52.372;13.610;2023-06-26T00:31:13;22.83;;;20.73;;
80322;SDS011;69636;52.372;13.610;2023-06-26T00:33:41;23.58;;;21.27;;
80322;SDS011;69636;52.372;13.610;2023-06-26T00:36:08;22.67;;;20.48;;
80322;SDS011;69636;52.372;13.610;2023-06-26T00:38:35;26.13;;;23.83;;
80322;SDS011;69636;52.372;13.610;2023-06-26T00:41:04;24.25;;;21.85;;
80322;SDS011;69636;52.372;13.610;2023-06-26T00:43:31;23.63;;;21.48;;
80322;SDS011;69636;52.372;13.610;2023-06-26T00:45:58;22.13;;;19.98;;
80322;SDS011;69636;52.372;13.610;2023-06-26T00:48:26;22.42;;;20.23;;
80322;SDS011;69636;52.372;13.610;2023-06-26T00:50:54;26.55;;;24.33;;
80322;SDS011;69636;52.372;13.610;2023-06-26T00:53:21;22.50;;;20.33;;
80322;SDS011;69636;52.372;13.610;2023-06-26T00:55:49;22.80;;;20.48;;
80322;SDS011;69636;52.372;13.610;2023-06-26T00:58:17;22.63;;;20.35;;
80322;SDS011;69636;52.372;13.610;2023-06-26T01:00:45;22.67;;;20.45;;
80322;SDS011;69636;52.372;13.610;2023-06-26T01:03:12;22.17;;;19.98;;
80322;SDS011;69636;52.372;13.610;2023-06-26T01:05:40;24.02;;;20.90;;
80322;SDS011;69636;52.372;13.610;2023-06-26T01:08:07;23.25;;;20.98;;
80322;SDS011;69636;52.372;13.610;2023-06-26T01:10:35;22.95;;;20.70;;
80322;SDS011;69636;52.372;13.610;2023-06-26T01:13:03;22.00;;;19.90;;
80322;SDS011;69636;52.372;13.610;2023-06-26T01:15:33;26.02;;;23.63;;
80322;SDS011;69636;52.372;13.610;2023-06-26T01:18:00;23.05;;;20.85;;
80322;SDS011;69636;52.372;13.610;2023-06-26T01:20:29;22.05;;;19.85;;
80322;SDS011;69636;52.372;13.610;2023-06-26T01:23:00;22.20;;;20.08;;
80322;SDS011;69636;52.372;13.610;2023-06-26T01:25:35;21.15;;;19.15;;
80322;SDS011;69636;52.372;13.610;2023-06-26T01:28:11;21.70;;;19.65;;
80322;SDS011;69636;52.372;13.610;2023-06-26T01:30:42;21.10;;;19.08;;
80322;SDS011;69636;52.372;13.610;2023-06-26T01:33:11;19.58;;;17.58;;
80322;SDS011;69636;52.372;13.610;2023-06-26T01:35:40;21.23;;;19.23;;
80322;SDS011;69636;52.372;13.610;2023-06-26T01:38:14;20.23;;;18.17;;
80322;SDS011;69636;52.372;13.610;2023-06-26T01:40:43;21.88;;;19.88;;
80322;SDS011;69636;52.372;13.610;2023-06-26T01:45:45;21.35;;;19.35;;
80322;SDS011;69636;52.372;13.610;2023-06-26T01:48:17;22.15;;;19.85;;
80322;SDS011;69636;52.372;13.610;2023-06-26T01:50:50;24.00;;;21.77;;
80322;SDS011;69636;52.372;13.610;2023-06-26T01:53:19;19.90;;;17.90;;
80322;SDS011;69636;52.372;13.610;2023-06-26T01:55:51;22.23;;;20.13;;
80322;SDS011;69636;52.372;13.610;2023-06-26T01:58:24;21.25;;;19.25;;
80322;SDS011;69636;52.372;13.610;2023-06-26T02:00:52;20.00;;;17.98;;
80322;SDS011;69636;52.372;13.610;2023-06-26T02:05:47;20.42;;;18.42;;
80322;SDS011;69636;52.372;13.610;2023-06-26T02:08:14;20.02;;;18.08;;
80322;SDS011;69636;52.372;13.610;2023-06-26T02:10:42;22.30;;;20.10;;
80322;SDS011;69636;52.372;13.610;2023-06-26T02:13:09;22.90;;;20.70;;
80322;SDS011;69636;52.372;13.610;2023-06-26T02:15:38;20.88;;;18.95;;
80322;SDS011;69636;52.372;13.610;2023-06-26T02:18:06;22.13;;;19.83;;
80322;SDS011;69636;52.372;13.610;2023-06-26T02:20:33;22.30;;;20.10;;
80322;SDS011;69636;52.372;13.610;2023-06-26T02:23:00;22.63;;;20.38;;
80322;SDS011;69636;52.372;13.610;2023-06-26T02:25:28;21.95;;;19.77;;
80322;SDS011;69636;52.372;13.610;2023-06-26T02:27:55;22.42;;;20.13;;
80322;SDS011;69636;52.372;13.610;2023-06-26T02:30:22;22.60;;;20.30;;
80322;SDS011;69636;52.372;13.610;2023-06-26T02:32:51;22.90;;;20.63;;
80322;SDS011;69636;52.372;13.610;2023-06-26T02:35:18;22.38;;;20.13;;
80322;SDS011;69636;52.372;13.610;2023-06-26T02:37:46;24.60;;;22.10;;
80322;SDS011;69636;52.372;13.610;2023-06-26T02:40:13;22.95;;;20.77;;
80322;SDS011;69636;52.372;13.610;2023-06-26T02:42:41;20.40;;;18.40;;
80322;SDS011;69636;52.372;13.610;2023-06-26T02:45:09;21.27;;;19.20;;
80322;SDS011;69636;52.372;13.610;2023-06-26T02:47:36;22.08;;;19.88;;
80322;SDS011;69636;52.372;13.610;2023-06-26T02:50:05;20.60;;;18.58;;
80322;SDS011;69636;52.372;13.610;2023-06-26T02:52:33;21.73;;;19.55;;
80322;SDS011;69636;52.372;13.610;2023-06-26T02:55:00;21.02;;;18.92;;
80322;SDS011;69636;52.372;13.610;2023-06-26T02:57:28;20.88;;;18.77;;
80322;SDS011;69636;52.372;13.610;2023-06-26T02:59:55;20.55;;;18.38;;
80322;SDS011;69636;52.372;13.610;2023-06-26T03:02:22;19.55;;;17.70;;
80322;SDS011;69636;52.372;13.610;2023-06-26T03:04:49;21.45;;;19.52;;
80322;SDS011;69636;52.372;13.610;2023-06-26T03:07:18;19.42;;;17.55;;
80322;SDS011;69636;52.372;13.610;2023-06-26T03:09:45;22.10;;;19.20;;
80322;SDS011;69636;52.372;13.610;2023-06-26T03:12:13;21.00;;;18.80;;
80322;SDS011;69636;52.372;13.610;2023-06-26T03:14:40;21.17;;;19.08;;
80322;SDS011;69636;52.372;13.610;2023-06-26T03:17:07;18.83;;;16.92;;
80322;SDS011;69636;52.372;13.610;2023-06-26T03:19:35;20.80;;;18.70;;
80322;SDS011;69636;52.372;13.610;2023-06-26T03:22:02;19.80;;;17.90;;
80322;SDS011;69636;52.372;13.610;2023-06-26T03:24:31;21.27;;;19.08;;
80322;SDS011;69636;52.372;13.610;2023-06-26T03:26:58;20.92;;;18.83;;
80322;SDS011;69636;52.372;13.610;2023-06-26T03:29:25;20.80;;;18.67;;
80322;SDS011;69636;52.372;13.610;2023-06-26T03:31:53;20.75;;;18.83;;
80322;SDS011;69636;52.372;13.610;2023-06-26T03:34:20;22.02;;;19.92;;
80322;SDS011;69636;52.372;13.610;2023-06-26T03:36:47;22.52;;;20.38;;
80322;SDS011;69636;52.372;13.610;2023-06-26T03:39:15;21.40;;;19.35;;
80322;SDS011;69636;52.372;13.610;2023-06-26T03:41:43;22.33;;;20.20;;
80322;SDS011;69636;52.372;13.610;2023-06-26T03:44:11;21.67;;;19.42;;
80322;SDS011;69636;52.372;13.610;2023-06-26T03:46:38;22.48;;;20.38;;
80322;SDS011;69636;52.372;13.610;2023-06-26T03:49:05;22.92;;;20.60;;
80322;SDS011;69636;52.372;13.610;2023-06-26T03:51:36;22.73;;;20.33;;
80322;SDS011;69636;52.372;13.610;2023-06-26T03:54:04;22.10;;;19.90;;
80322;SDS011;69636;52.372;13.610;2023-06-26T03:56:31;22.67;;;20.38;;
80322;SDS011;69636;52.372;13.610;2023-06-26T03:59:00;23.92;;;21.60;;
80322;SDS011;69636;52.372;13.610;2023-06-26T04:01:30;20.67;;;18.52;;
80322;SDS011;69636;52.372;13.610;2023-06-26T04:03:57;22.85;;;20.55;;
80322;SDS011;69636;52.372;13.610;2023-06-26T04:06:24;21.88;;;19.65;;
80322;SDS011;69636;52.372;13.610;2023-06-26T04:08:52;23.52;;;20.77;;
80322;SDS011;69636;52.372;13.610;2023-06-26T04:11:19;23.48;;;21.23;;
80322;SDS011;69636;52.372;13.610;2023-06-26T04:13:46;22.90;;;20.60;;
80322;SDS011;69636;52.372;13.610;2023-06-26T04:16:15;22.30;;;20.00;;
80322;SDS011;69636;52.372;13.610;2023-06-26T04:18:42;22.98;;;20.67;;
80322;SDS011;69636;52.372;13.610;2023-06-26T04:21:10;22.23;;;20.13;;
80322;SDS011;69636;52.372;13.610;2023-06-26T04:23:39;21.60;;;19.42;;
80322;SDS011;69636;52.372;13.610;2023-06-26T04:26:07;22.48;;;20.15;;
80322;SDS011;69636;52.372;13.610;2023-06-26T04:31:02;21.55;;;19.45;;
80322;SDS011;69636;52.372;13.610;2023-06-26T04:33:31;22.58;;;20.30;;
80322;SDS011;69636;52.372;13.610;2023-06-26T04:35:58;24.90;;;22.70;;
80322;SDS011;69636;52.372;13.610;2023-06-26T04:38:26;24.95;;;22.63;;
80322;SDS011;69636;52.372;13.610;2023-06-26T04:40:53;23.15;;;20.92;;
80322;SDS011;69636;52.372;13.610;2023-06-26T04:43:20;21.75;;;19.45;;
80322;SDS011;69636;52.372;13.610;2023-06-26T04:45:47;20.60;;;18.50;;
80322;SDS011;69636;52.372;13.610;2023-06-26T04:48:15;21.73;;;19.73;;
80322;SDS011;69636;52.372;13.610;2023-06-26T04:50:43;25.00;;;22.50;;
80322;SDS011;69636;52.372;13.610;2023-06-26T04:53:11;22.42;;;20.23;;
80322;SDS011;69636;52.372;13.610;2023-06-26T04:55:38;22.40;;;20.27;;
80322;SDS011;69636;52.372;13.610;2023-06-26T04:58:06;24.33;;;22.02;;
80322;SDS011;69636;52.372;13.610;2023-06-26T05:00:33;23.60;;;21.25;;
80322;SDS011;69636;52.372;13.610;2023-06-26T05:03:00;22.95;;;20.65;;
80322;SDS011;69636;52.372;13.610;2023-06-26T05:05:28;21.45;;;19.23;;
80322;SDS011;69636;52.372;13.610;2023-06-26T05:07:57;25.05;;;22.63;;
80322;SDS011;69636;52.372;13.610;2023-06-26T05:10:24;25.33;;;22.85;;
80322;SDS011;69636;52.372;13.610;2023-06-26T05:12:51;24.88;;;22.58;;
80322;SDS011;69636;52.372;13.610;2023-06-26T05:15:18;24.95;;;22.60;;
80322;SDS011;69636;52.372;13.610;2023-06-26T05:17:46;22.60;;;20.40;;
80322;SDS011;69636;52.372;13.610;2023-06-26T05:20:13;22.23;;;19.92;;
80322;SDS011;69636;52.372;13.610;2023-06-26T05:22:40;24.27;;;22.08;;
80322;SDS011;69636;52.372;13.610;2023-06-26T05:25:10;21.40;;;19.30;;
80322;SDS011;69636;52.372;13.610;2023-06-26T05:27:38;24.73;;;22.35;;
80322;SDS011;69636;52.372;13.610;2023-06-26T05:30:06;23.38;;;21.17;;
80322;SDS011;69636;52.372;13.610;2023-06-26T05:32:34;25.10;;;22.70;;
80322;SDS011;69636;52.372;13.610;2023-06-26T05:35:02;24.08;;;21.80;;
80322;SDS011;69636;52.372;13.610;2023-06-26T05:37:30;23.17;;;20.95;;
80322;SDS011;69636;52.372;13.610;2023-06-26T05:39:58;23.10;;;21.00;;
80322;SDS011;69636;52.372;13.610;2023-06-26T05:42:27;22.88;;;20.77;;
80322;SDS011;69636;52.372;13.610;2023-06-26T05:44:55;22.52;;;20.55;;
80322;SDS011;69636;52.372;13.610;2023-06-26T05:47:23;22.90;;;20.88;;
80322;SDS011;69636;52.372;13.610;2023-06-26T05:49:50;23.10;;;21.10;;
80322;SDS011;69636;52.372;13.610;2023-06-26T05:52:17;22.23;;;20.25;;
80322;SDS011;69636;52.372;13.610;2023-06-26T05:54:45;21.67;;;19.58;;
80322;SDS011;69636;52.372;13.610;2023-06-26T05:57:13;21.27;;;19.17;;
80322;SDS011;69636;52.372;13.610;2023-06-26T05:59:44;20.58;;;18.77;;
80322;SDS011;69636;52.372;13.610;2023-06-26T06:02:11;19.38;;;17.55;;
80322;SDS011;69636;52.372;13.610;2023-06-26T06:04:39;17.67;;;16.08;;
80322;SDS011;69636;52.372;13.610;2023-06-26T06:07:06;19.20;;;17.50;;
80322;SDS011;69636;52.372;13.610;2023-06-26T06:09:34;17.95;;;16.45;;
80322;SDS011;69636;52.372;13.610;2023-06-26T06:12:01;19.35;;;17.45;;
80322;SDS011;69636;52.372;13.610;2023-06-26T06:14:28;16.88;;;15.38;;
80322;SDS011;69636;52.372;13.610;2023-06-26T06:16:57;18.92;;;17.13;;
80322;SDS011;69636;52.372;13.610;2023-06-26T06:19:24;18.30;;;15.70;;
80322;SDS011;69636;52.372;13.610;2023-06-26T06:21:52;16.50;;;14.93;;
80322;SDS011;69636;52.372;13.610;2023-06-26T06:24:19;16.27;;;14.77;;
80322;SDS011;69636;52.372;13.610;2023-06-26T06:26:47;16.38;;;14.80;;
80322;SDS011;69636;52.372;13.610;2023-06-26T06:29:14;17.67;;;14.63;;
80322;SDS011;69636;52.372;13.610;2023-06-26T06:31:42;16.08;;;14.55;;
80322;SDS011;69636;52.372;13.610;2023-06-26T06:34:10;15.65;;;13.95;;
80322;SDS011;69636;52.372;13.610;2023-06-26T06:36:38;15.23;;;13.80;;
80322;SDS011;69636;52.372;13.610;2023-06-26T06:39:05;15.27;;;13.88;;
80322;SDS011;69636;52.372;13.610;2023-06-26T06:41:32;14.77;;;13.48;;
80322;SDS011;69636;52.372;13.610;2023-06-26T06:44:03;16.50;;;14.77;;
80322;SDS011;69636;52.372;13.610;2023-06-26T06:46:30;16.95;;;15.35;;
80322;SDS011;69636;52.372;13.610;2023-06-26T06:48:57;14.68;;;13.27;;
80322;SDS011;69636;52.372;13.610;2023-06-26T06:51:26;14.10;;;12.63;;
80322;SDS011;69636;52.372;13.610;2023-06-26T06:53:53;11.98;;;10.77;;
80322;SDS011;69636;52.372;13.610;2023-06-26T06:56:21;10.93;;;9.55;;
80322;SDS011;69636;52.372;13.610;2023-06-26T06:58:48;11.48;;;10.38;;
80322;SDS011;69636;52.372;13.610;2023-06-26T07:03:42;11.60;;;10.40;;
80322;SDS011;69636;52.372;13.610;2023-06-26T07:06:10;12.07;;;10.88;;
80322;SDS011;69636;52.372;13.610;2023-06-26T07:11:06;10.65;;;9.65;;
80322;SDS011;69636;52.372;13.610;2023-06-26T07:13:33;10.70;;;9.70;;
80322;SDS011;69636;52.372;13.610;2023-06-26T07:18:28;10.88;;;9.88;;
80322;SDS011;69636;52.372;13.610;2023-06-26T07:20:55;9.13;;;8.30;;
80322;SDS011;69636;52.372;13.610;2023-06-26T07:25:51;9.25;;;8.35;;
80322;SDS011;69636;52.372;13.610;2023-06-26T07:28:18;10.00;;;9.00;;
80322;SDS011;69636;52.372;13.610;2023-06-26T07:30:45;10.48;;;9.48;;
80322;SDS011;69636;52.372;13.610;2023-06-26T07:35:39;9.48;;;8.55;;
80322;SDS011;69636;52.372;13.610;2023-06-26T07:40:34;9.77;;;8.77;;
80322;SDS011;69636;52.372;13.610;2023-06-26T07:43:02;10.38;;;9.30;;
80322;SDS011;69636;52.372;13.610;2023-06-26T07:45:29;10.95;;;9.85;;
80322;SDS011;69636;52.372;13.610;2023-06-26T07:50:24;10.57;;;9.55;;
80322;SDS011;69636;52.372;13.610;2023-06-26T07:52:51;10.73;;;9.68;;
80322;SDS011;69636;52.372;13.610;2023-06-26T07:55:19;10.68;;;9.52;;
80322;SDS011;69636;52.372;13.610;2023-06-26T07:57:46;9.75;;;8.68;;
80322;SDS011;69636;52.372;13.610;2023-06-26T08:02:42;10.02;;;8.70;;
80322;SDS011;69636;52.372;13.610;2023-06-26T08:05:10;9.57;;;8.57;;
80322;SDS011;69636;52.372;13.610;2023-06-26T08:07:37;8.38;;;7.55;;
80322;SDS011;69636;52.372;13.610;2023-06-26T08:12:32;9.50;;;7.78;;
80322;SDS011;69636;52.372;13.610;2023-06-26T08:17:27;8.02;;;6.47;;
80322;SDS011;69636;52.372;13.610;2023-06-26T08:19:56;7.45;;;6.72;;
80322;SDS011;69636;52.372;13.610;2023-06-26T08:22:23;8.60;;;7.40;;
80322;SDS011;69636;52.372;13.610;2023-06-26T08:24:51;8.20;;;7.40;;
80322;SDS011;69636;52.372;13.610;2023-06-26T08:27:18;8.10;;;6.22;;
80322;SDS011;69636;52.372;13.610;2023-06-26T08:29:45;8.23;;;7.28;;
80322;SDS011;69636;52.372;13.610;2023-06-26T08:32:13;8.50;;;6.45;;
80322;SDS011;69636;52.372;13.610;2023-06-26T08:34:41;9.30;;;5.45;;
80322;SDS011;69636;52.372;13.610;2023-06-26T08:37:09;7.80;;;6.13;;
80322;SDS011;69636;52.372;13.610;2023-06-26T08:39:36;6.82;;;5.90;;
80322;SDS011;69636;52.372;13.610;2023-06-26T08:42:03;7.10;;;6.40;;
80322;SDS011;69636;52.372;13.610;2023-06-26T08:44:31;6.95;;;6.25;;
80322;SDS011;69636;52.372;13.610;2023-06-26T08:46:59;7.78;;;6.72;;
80322;SDS011;69636;52.372;13.610;2023-06-26T08:49:28;6.55;;;5.57;;
80322;SDS011;69636;52.372;13.610;2023-06-26T08:52:05;6.43;;;5.53;;
80322;SDS011;69636;52.372;13.610;2023-06-26T08:54:40;6.40;;;5.80;;
80322;SDS011;69636;52.372;13.610;2023-06-26T08:57:12;7.63;;;5.78;;
80322;SDS011;69636;52.372;13.610;2023-06-26T08:59:46;6.18;;;5.57;;
80322;SDS011;69636;52.372;13.610;2023-06-26T09:02:14;6.32;;;5.25;;
80322;SDS011;69636;52.372;13.610;2023-06-26T09:04:41;9.25;;;6.07;;
80322;SDS011;69636;52.372;13.610;2023-06-26T09:07:10;7.97;;;5.68;;
80322;SDS011;69636;52.372;13.610;2023-06-26T09:09:38;6.63;;;5.13;;
80322;SDS011;69636;52.372;13.610;2023-06-26T09:12:05;6.32;;;5.30;;
80322;SDS011;69636;52.372;13.610;2023-06-26T09:14:35;5.88;;;4.45;;
80322;SDS011;69636;52.372;13.610;2023-06-26T09:17:03;6.43;;;4.70;;
80322;SDS011;69636;52.372;13.610;2023-06-26T09:19:32;6.35;;;5.65;;
80322;SDS011;69636;52.372;13.610;2023-06-26T09:22:03;7.00;;;5.45;;
80322;SDS011;69636;52.372;13.610;2023-06-26T09:24:32;6.97;;;4.78;;
80322;SDS011;69636;52.372;13.610;2023-06-26T09:26:59;5.63;;;5.00;;
80322;SDS011;69636;52.372;13.610;2023-06-26T09:29:28;6.40;;;4.80;;
80322;SDS011;69636;52.372;13.610;2023-06-26T09:31:55;6.72;;;5.28;;
80322;SDS011;69636;52.372;13.610;2023-06-26T09:34:26;6.68;;;6.00;;
80322;SDS011;69636;52.372;13.610;2023-06-26T09:36:57;7.18;;;5.00;;
80322;SDS011;69636;52.372;13.610;2023-06-26T09:39:24;5.97;;;5.00;;
80322;SDS011;69636;52.372;13.610;2023-06-26T09:41:53;5.88;;;5.28;;
80322;SDS011;69636;52.372;13.610;2023-06-26T09:44:21;5.85;;;4.53;;
80322;SDS011;69636;52.372;13.610;2023-06-26T09:46:48;5.85;;;5.20;;
80322;SDS011;69636;52.372;13.610;2023-06-26T09:49:15;6.65;;;5.45;;
80322;SDS011;69636;52.372;13.610;2023-06-26T09:51:43;5.50;;;4.60;;
80322;SDS011;69636;52.372;13.610;2023-06-26T09:54:10;6.38;;;4.90;;
80322;SDS011;69636;52.372;13.610;2023-06-26T09:56:38;7.38;;;5.38;;
80322;SDS011;69636;52.372;13.610;2023-06-26T09:59:07;6.03;;;5.43;;
80322;SDS011;69636;52.372;13.610;2023-06-26T10:01:40;6.43;;;5.03;;
80322;SDS011;69636;52.372;13.610;2023-06-26T10:04:09;5.55;;;4.55;;
80322;SDS011;69636;52.372;13.610;2023-06-26T10:06:37;6.32;;;4.88;;
80322;SDS011;69636;52.372;13.610;2023-06-26T10:09:07;5.85;;;4.97;;
80322;SDS011;69636;52.372;13.610;2023-06-26T10:11:37;7.65;;;6.80;;
80322;SDS011;69636;52.372;13.610;2023-06-26T10:14:12;7.40;;;5.18;;
80322;SDS011;69636;52.372;13.610;2023-06-26T10:19:13;5.97;;;5.13;;
80322;SDS011;69636;52.372;13.610;2023-06-26T10:21:43;6.75;;;5.78;;
80322;SDS011;69636;52.372;13.610;2023-06-26T10:24:11;6.15;;;4.68;;
80322;SDS011;69636;52.372;13.610;2023-06-26T10:26:42;7.50;;;5.07;;
80322;SDS011;69636;52.372;13.610;2023-06-26T10:29:13;7.25;;;5.43;;
80322;SDS011;69636;52.372;13.610;2023-06-26T10:31:43;6.60;;;5.50;;
80322;SDS011;69636;52.372;13.610;2023-06-26T10:34:13;7.70;;;5.70;;
80322;SDS011;69636;52.372;13.610;2023-06-26T10:36:41;6.55;;;5.22;;
80322;SDS011;69636;52.372;13.610;2023-06-26T10:41:37;10.48;;;5.80;;
80322;SDS011;69636;52.372;13.610;2023-06-26T10:44:17;7.22;;;5.03;;
80322;SDS011;69636;52.372;13.610;2023-06-26T10:46:48;5.55;;;4.00;;
80322;SDS011;69636;52.372;13.610;2023-06-26T10:49:16;5.22;;;4.40;;
80322;SDS011;69636;52.372;13.610;2023-06-26T10:51:45;6.57;;;3.78;;
80322;SDS011;69636;52.372;13.610;2023-06-26T10:54:14;5.10;;;4.22;;
80322;SDS011;69636;52.372;13.610;2023-06-26T10:56:42;5.65;;;3.50;;
80322;SDS011;69636;52.372;13.610;2023-06-26T10:59:11;6.90;;;4.03;;
80322;SDS011;69636;52.372;13.610;2023-06-26T11:01:43;6.82;;;3.63;;
80322;SDS011;69636;52.372;13.610;2023-06-26T11:04:11;5.18;;;3.80;;
80322;SDS011;69636;52.372;13.610;2023-06-26T11:06:40;5.43;;;3.83;;
80322;SDS011;69636;52.372;13.610;2023-06-26T11:09:08;4.95;;;3.65;;
80322;SDS011;69636;52.372;13.610;2023-06-26T11:14:26;5.90;;;3.80;;
80322;SDS011;69636;52.372;13.610;2023-06-26T11:16:56;4.80;;;3.60;;
80322;SDS011;69636;52.372;13.610;2023-06-26T11:19:24;5.07;;;3.88;;
80322;SDS011;69636;52.372;13.610;2023-06-26T11:21:56;5.20;;;3.90;;
80322;SDS011;69636;52.372;13.610;2023-06-26T11:24:25;5.15;;;4.03;;
80322;SDS011;69636;52.372;13.610;2023-06-26T11:26:53;6.07;;;4.18;;
80322;SDS011;69636;52.372;13.610;2023-06-26T11:29:21;5.90;;;4.20;;
80322;SDS011;69636;52.372;13.610;2023-06-26T11:31:48;5.28;;;3.80;;
80322;SDS011;69636;52.372;13.610;2023-06-26T11:34:31;6.03;;;3.97;;
80322;SDS011;69636;52.372;13.610;2023-06-26T11:36:59;5.20;;;4.20;;
80322;SDS011;69636;52.372;13.610;2023-06-26T11:39:26;5.10;;;4.38;;
80322;SDS011;69636;52.372;13.610;2023-06-26T11:41:54;5.70;;;4.35;;
80322;SDS011;69636;52.372;13.610;2023-06-26T11:44:21;5.45;;;4.40;;
80322;SDS011;69636;52.372;13.610;2023-06-26T11:46:51;5.07;;;4.53;;
80322;SDS011;69636;52.372;13.610;2023-06-26T11:49:20;5.65;;;4.07;;
80322;SDS011;69636;52.372;13.610;2023-06-26T11:51:48;5.85;;;4.75;;
80322;SDS011;69636;52.372;13.610;2023-06-26T11:54:16;5.70;;;4.82;;
80322;SDS011;69636;52.372;13.610;2023-06-26T11:56:56;5.32;;;4.80;;
80322;SDS011;69636;52.372;13.610;2023-06-26T11:59:24;6.40;;;4.93;;
80322;SDS011;69636;52.372;13.610;2023-06-26T12:02:00;5.70;;;4.70;;
80322;SDS011;69636;52.372;13.610;2023-06-26T12:04:33;5.75;;;4.30;;
80322;SDS011;69636;52.372;13.610;2023-06-26T12:07:02;7.15;;;4.70;;
80322;SDS011;69636;52.372;13.610;2023-06-26T12:09:30;7.03;;;4.53;;
80322;SDS011;69636;52.372;13.610;2023-06-26T12:11:58;6.38;;;5.07;;
80322;SDS011;69636;52.372;13.610;2023-06-26T12:14:25;5.53;;;4.60;;
80322;SDS011;69636;52.372;13.610;2023-06-26T12:16:53;5.80;;;4.60;;
80322;SDS011;69636;52.372;13.610;2023-06-26T12:19:23;5.88;;;4.50;;
80322;SDS011;69636;52.372;13.610;2023-06-26T12:21:53;6.13;;;5.10;;
80322;SDS011;69636;52.372;13.610;2023-06-26T12:24:21;5.63;;;4.70;;
80322;SDS011;69636;52.372;13.610;2023-06-26T12:26:51;6.47;;;4.88;;
80322;SDS011;69636;52.372;13.610;2023-06-26T12:29:19;6.05;;;4.68;;
80322;SDS011;69636;52.372;13.610;2023-06-26T12:31:50;6.40;;;4.95;;
80322;SDS011;69636;52.372;13.610;2023-06-26T12:34:19;5.53;;;4.35;;
80322;SDS011;69636;52.372;13.610;2023-06-26T12:36:48;7.65;;;4.70;;
80322;SDS011;69636;52.372;13.610;2023-06-26T12:39:18;7.00;;;4.75;;
80322;SDS011;69636;52.372;13.610;2023-06-26T12:41:47;5.70;;;5.00;;
80322;SDS011;69636;52.372;13.610;2023-06-26T12:44:18;5.53;;;4.60;;
80322;SDS011;69636;52.372;13.610;2023-06-26T12:46:47;5.68;;;4.57;;
80322;SDS011;69636;52.372;13.610;2023-06-26T12:49:16;5.90;;;4.90;;
80322;SDS011;69636;52.372;13.610;2023-06-26T12:51:57;6.05;;;5.20;;
80322;SDS011;69636;52.372;13.610;2023-06-26T12:54:26;5.85;;;4.70;;
80322;SDS011;69636;52.372;13.610;2023-06-26T12:56:53;8.25;;;5.28;;
80322;SDS011;69636;52.372;13.610;2023-06-26T12:59:21;6.78;;;4.82;;
80322;SDS011;69636;52.372;13.610;2023-06-26T13:01:48;6.18;;;4.78;;
80322;SDS011;69636;52.372;13.610;2023-06-26T13:04:16;7.07;;;5.40;;
80322;SDS011;69636;52.372;13.610;2023-06-26T13:06:44;6.13;;;5.25;;
80322;SDS011;69636;52.372;13.610;2023-06-26T13:09:11;5.78;;;5.10;;
80322;SDS011;69636;52.372;13.610;2023-06-26T13:11:40;6.80;;;5.38;;
80322;SDS011;69636;52.372;13.610;2023-06-26T13:14:07;6.97;;;6.28;;
80322;SDS011;69636;52.372;13.610;2023-06-26T13:16:38;8.20;;;5.50;;
80322;SDS011;69636;52.372;13.610;2023-06-26T13:19:07;6.90;;;6.20;;
80322;SDS011;69636;52.372;13.610;2023-06-26T13:21:35;7.13;;;5.68;;
80322;SDS011;69636;52.372;13.610;2023-06-26T13:24:03;7.22;;;5.82;;
80322;SDS011;69636;52.372;13.610;2023-06-26T13:26:31;8.40;;;5.53;;
80322;SDS011;69636;52.372;13.610;2023-06-26T13:29:03;7.63;;;6.50;;
80322;SDS011;69636;52.372;13.610;2023-06-26T13:31:30;7.38;;;6.43;;
80322;SDS011;69636;52.372;13.610;2023-06-26T13:33:58;6.63;;;5.60;;
80322;SDS011;69636;52.372;13.610;2023-06-26T13:36:26;8.07;;;6.90;;
80322;SDS011;69636;52.372;13.610;2023-06-26T13:38:54;5.72;;;5.13;;
80322;SDS011;69636;52.372;13.610;2023-06-26T13:41:21;6.57;;;5.35;;
80322;SDS011;69636;52.372;13.610;2023-06-26T13:43:49;6.75;;;5.55;;
80322;SDS011;69636;52.372;13.610;2023-06-26T13:46:18;6.63;;;5.32;;
80322;SDS011;69636;52.372;13.610;2023-06-26T13:48:46;6.90;;;6.20;;
80322;SDS011;69636;52.372;13.610;2023-06-26T13:51:13;7.25;;;6.05;;
80322;SDS011;69636;52.372;13.610;2023-06-26T13:53:41;7.65;;;6.63;;
80322;SDS011;69636;52.372;13.610;2023-06-26T13:56:08;7.57;;;5.75;;
80322;SDS011;69636;52.372;13.610;2023-06-26T13:58:35;6.65;;;5.22;;
80322;SDS011;69636;52.372;13.610;2023-06-26T14:01:03;6.95;;;6.00;;
80322;SDS011;69636;52.372;13.610;2023-06-26T14:03:32;7.05;;;6.35;;
80322;SDS011;69636;52.372;13.610;2023-06-26T14:06:00;6.97;;;6.07;;
80322;SDS011;69636;52.372;13.610;2023-06-26T14:08:27;8.55;;;5.90;;
80322;SDS011;69636;52.372;13.610;2023-06-26T14:10:54;6.57;;;5.88;;
80322;SDS011;69636;52.372;13.610;2023-06-26T14:13:21;6.82;;;6.07;;
80322;SDS011;69636;52.372;13.610;2023-06-26T14:15:50;7.25;;;6.53;;
80322;SDS011;69636;52.372;13.610;2023-06-26T14:18:17;6.63;;;6.03;;
80322;SDS011;69636;52.372;13.610;2023-06-26T14:20:46;7.63;;;6.82;;
80322;SDS011;69636;52.372;13.610;2023-06-26T14:23:13;8.60;;;5.75;;
80322;SDS011;69636;52.372;13.610;2023-06-26T14:25:40;7.22;;;6.13;;
80322;SDS011;69636;52.372;13.610;2023-06-26T14:28:08;7.53;;;6.25;;
80322;SDS011;69636;52.372;13.610;2023-06-26T14:30:35;7.45;;;6.43;;
80322;SDS011;69636;52.372;13.610;2023-06-26T14:33:03;6.88;;;6.15;;
80322;SDS011;69636;52.372;13.610;2023-06-26T14:35:30;7.30;;;6.60;;
80322;SDS011;69636;52.372;13.610;2023-06-26T14:37:59;9.10;;;8.18;;
80322;SDS011;69636;52.372;13.610;2023-06-26T14:40:27;7.50;;;6.72;;
80322;SDS011;69636;52.372;13.610;2023-06-26T14:42:54;10.93;;;6.35;;
80322;SDS011;69636;52.372;13.610;2023-06-26T14:45:22;11.85;;;5.15;;
80322;SDS011;69636;52.372;13.610;2023-06-26T14:47:50;12.95;;;4.00;;
80322;SDS011;69636;52.372;13.610;2023-06-26T14:50:18;11.38;;;4.93;;
80322;SDS011;69636;52.372;13.610;2023-06-26T14:52:45;12.52;;;5.50;;
80322;SDS011;69636;52.372;13.610;2023-06-26T14:57:41;9.57;;;7.40;;
80322;SDS011;69636;52.372;13.610;2023-06-26T15:00:08;10.60;;;7.50;;
80322;SDS011;69636;52.372;13.610;2023-06-26T15:02:36;15.70;;;10.65;;
80322;SDS011;69636;52.372;13.610;2023-06-26T15:05:05;15.25;;;9.52;;
80322;SDS011;69636;52.372;13.610;2023-06-26T15:07:33;12.73;;;9.65;;
80322;SDS011;69636;52.372;13.610;2023-06-26T15:12:29;10.35;;;8.75;;